createdAt,value
2022-08-19T00:01:28.642Z,95739.25
2022-08-19T00:03:58.638Z,95737.41
2022-08-19T00:06:26.150Z,95734.06
2022-08-19T00:08:53.626Z,95742.66
2022-08-19T00:11:26.052Z,95752.19
2022-08-19T00:13:53.840Z,95756.22
2022-08-19T00:16:26.166Z,95756.28
2022-08-19T00:18:56.035Z,95758.44
2022-08-19T00:21:23.817Z,95765.50
2022-08-19T00:23:51.445Z,95735.16
2022-08-19T00:26:18.959Z,95754.56
2022-08-19T00:28:48.108Z,95750.06
2022-08-19T00:31:17.205Z,95734.56
2022-08-19T00:33:45.046Z,95739.09
2022-08-19T00:36:12.881Z,95748.28
2022-08-19T00:38:42.169Z,95746.50
2022-08-19T00:41:10.188Z,95744.38
2022-08-19T00:43:38.473Z,95742.31
2022-08-19T00:46:07.391Z,95742.44
2022-08-19T00:48:37.352Z,95730.00
2022-08-19T00:51:07.462Z,95747.09
2022-08-19T00:53:35.894Z,95746.59
2022-08-19T00:56:07.014Z,95745.56
2022-08-19T00:58:36.082Z,95744.75
2022-08-19T01:01:05.434Z,95754.16
2022-08-19T01:03:56.604Z,95735.09
2022-08-19T01:06:21.958Z,95744.88
2022-08-19T01:08:50.198Z,95743.94
2022-08-19T01:11:18.031Z,95740.34
2022-08-19T01:13:49.877Z,95737.81
2022-08-19T01:16:19.605Z,95735.78
2022-08-19T01:18:49.309Z,95736.06
2022-08-19T01:21:24.421Z,95728.19
2022-08-19T01:23:53.582Z,95729.03
2022-08-19T01:26:23.931Z,95718.25
2022-08-19T01:28:57.328Z,95725.84
2022-08-19T01:31:31.352Z,95717.91
2022-08-19T01:34:00.872Z,95718.09
2022-08-19T01:36:30.528Z,95711.88
2022-08-19T01:39:00.332Z,95710.59
2022-08-19T01:41:27.893Z,95706.16
2022-08-19T01:44:13.519Z,95713.44
2022-08-19T01:46:44.862Z,95713.19
2022-08-19T01:49:12.531Z,95710.88
2022-08-19T01:51:40.677Z,95702.75
2022-08-19T01:54:09.972Z,95702.25
2022-08-19T01:56:37.773Z,95707.25
2022-08-19T01:59:10.235Z,95701.19
2022-08-19T02:01:37.838Z,95708.19
2022-08-19T02:04:05.961Z,95706.47
2022-08-19T02:06:33.932Z,95726.91
2022-08-19T02:09:02.166Z,95713.84
2022-08-19T02:11:34.324Z,95723.53
2022-08-19T02:14:03.601Z,95721.25
2022-08-19T02:16:31.812Z,95719.16
2022-08-19T02:19:01.358Z,95724.13
2022-08-19T02:21:29.884Z,95719.09
2022-08-19T02:23:57.828Z,95736.09
2022-08-19T02:26:27.317Z,95716.19
2022-08-19T02:28:57.151Z,95711.75
2022-08-19T02:31:26.866Z,95714.88
2022-08-19T02:33:56.745Z,95725.34
2022-08-19T02:36:26.235Z,95726.84
2022-08-19T02:38:55.537Z,95714.25
2022-08-19T02:41:26.599Z,95721.69
2022-08-19T02:44:22.906Z,95719.69
2022-08-19T02:46:44.308Z,95721.31
2022-08-19T02:49:11.750Z,95722.09
2022-08-19T02:51:46.140Z,95728.13
2022-08-19T02:54:14.806Z,95721.84
2022-08-19T02:56:44.101Z,95725.47
2022-08-19T02:59:13.422Z,95723.84
2022-08-19T03:01:43.168Z,95721.47
2022-08-19T03:04:14.142Z,95714.19
2022-08-19T03:06:43.732Z,95721.16
2022-08-19T03:09:12.375Z,95724.84
2022-08-19T03:11:40.640Z,95719.31
2022-08-19T03:14:10.190Z,95722.97
2022-08-19T03:16:43.714Z,95719.63
2022-08-19T03:19:11.255Z,95710.47
2022-08-19T03:21:38.745Z,95731.38
2022-08-19T03:24:08.460Z,95727.72
2022-08-19T03:26:36.219Z,95726.44
2022-08-19T03:29:05.697Z,95715.44
2022-08-19T03:31:43.456Z,95726.94
2022-08-19T03:34:16.594Z,95739.75
2022-08-19T03:36:44.168Z,95737.66
2022-08-19T03:39:12.399Z,95749.16
2022-08-19T03:41:44.991Z,95748.41
2022-08-19T03:44:16.989Z,95741.09
2022-08-19T03:46:47.921Z,95736.13
2022-08-19T03:49:18.744Z,95735.34
2022-08-19T03:51:48.823Z,95749.22
2022-08-19T03:54:18.950Z,95749.22
2022-08-19T03:56:48.443Z,95753.94
2022-08-19T03:59:18.718Z,95747.59
2022-08-19T04:01:46.608Z,95752.31
2022-08-19T04:04:14.144Z,95750.00
2022-08-19T04:06:44.856Z,95750.78
2022-08-19T04:09:13.584Z,95749.22
2022-08-19T04:11:44.963Z,95745.31
2022-08-19T04:14:14.913Z,95752.63
2022-08-19T04:16:43.551Z,95749.47
2022-08-19T04:19:11.184Z,95754.94
2022-08-19T04:21:38.781Z,95757.31
2022-08-19T04:24:08.718Z,95760.97
2022-08-19T04:26:38.591Z,95725.66
2022-08-19T04:29:12.342Z,95752.06
2022-08-19T04:31:42.048Z,95741.63
2022-08-19T04:34:12.046Z,95745.00
2022-08-19T04:36:43.238Z,95734.28
2022-08-19T04:39:14.429Z,95753.59
2022-08-19T04:41:59.734Z,95751.47
2022-08-19T04:44:31.464Z,95753.50
2022-08-19T04:47:01.366Z,95750.66
2022-08-19T04:49:29.340Z,95758.47
2022-08-19T04:51:56.891Z,95759.25
2022-08-19T04:54:37.600Z,95745.97
2022-08-19T04:57:08.406Z,95763.28
2022-08-19T04:59:36.819Z,95767.47
2022-08-19T05:02:05.363Z,95768.53
2022-08-19T05:04:33.698Z,95776.69
2022-08-19T05:07:02.490Z,95773.75
2022-08-19T05:09:39.085Z,95778.47
2022-08-19T05:12:20.252Z,95769.94
2022-08-19T05:14:48.100Z,95771.38
2022-08-19T05:17:37.529Z,95774.09
2022-08-19T05:20:22.636Z,95767.06
2022-08-19T05:22:50.199Z,95776.84
2022-08-19T05:25:21.435Z,95779.38
2022-08-19T05:27:49.847Z,95784.13
2022-08-19T05:30:18.926Z,95776.56
2022-08-19T05:33:01.299Z,95780.09
2022-08-19T05:35:29.084Z,95780.91
2022-08-19T05:38:02.507Z,95790.28
2022-08-19T05:40:31.398Z,95789.53
2022-08-19T05:42:59.469Z,95780.41
2022-08-19T05:45:26.914Z,95799.72
2022-08-19T05:47:54.794Z,95792.31
2022-08-19T05:50:22.331Z,95805.56
2022-08-19T05:52:50.190Z,95806.25
2022-08-19T05:55:21.093Z,95798.00
2022-08-19T05:57:49.984Z,95797.63
2022-08-19T06:00:21.493Z,95793.22
2022-08-19T06:02:52.495Z,95796.44
2022-08-19T06:05:20.993Z,95783.56
2022-08-19T06:07:48.515Z,95792.94
2022-08-19T06:10:16.329Z,95794.69
2022-08-19T06:12:43.800Z,95800.44
2022-08-19T06:15:14.931Z,95805.56
2022-08-19T06:17:45.134Z,95800.03
2022-08-19T06:20:16.131Z,95798.97
2022-08-19T06:22:45.668Z,95802.28
2022-08-19T06:25:14.707Z,95793.06
2022-08-19T06:28:11.455Z,95787.53
2022-08-19T06:30:31.517Z,95791.44
2022-08-19T06:32:59.637Z,95797.22
2022-08-19T06:35:27.225Z,95800.84
2022-08-19T06:37:54.945Z,95807.38
2022-08-19T06:40:22.955Z,95798.03
2022-08-19T06:42:54.786Z,95793.72
2022-08-19T06:45:24.633Z,95805.34
2022-08-19T06:47:59.287Z,95807.13
2022-08-19T06:50:27.283Z,95804.03
2022-08-19T06:52:56.350Z,95806.94
2022-08-19T06:55:24.381Z,95809.75
2022-08-19T06:57:54.540Z,95819.22
2022-08-19T07:00:23.077Z,95796.19
2022-08-19T07:02:59.406Z,95814.91
2022-08-19T07:05:30.425Z,95822.31
2022-08-19T07:08:02.861Z,95815.97
2022-08-19T07:10:33.653Z,95829.69
2022-08-19T07:13:01.225Z,95824.63
2022-08-19T07:15:28.874Z,95822.72
2022-08-19T07:17:56.695Z,95826.88
2022-08-19T07:20:28.492Z,95812.75
2022-08-19T07:22:58.298Z,95816.09
2022-08-19T07:25:32.339Z,95820.78
2022-08-19T07:28:01.548Z,95824.81
2022-08-19T07:30:29.451Z,95819.34
2022-08-19T07:32:59.282Z,95830.47
2022-08-19T07:35:26.824Z,95829.53
2022-08-19T07:37:54.508Z,95830.94
2022-08-19T07:40:23.641Z,95834.06
2022-08-19T07:42:51.111Z,95825.16
2022-08-19T07:45:18.673Z,95836.66
2022-08-19T07:47:48.810Z,95835.22
2022-08-19T07:50:21.254Z,95821.19
2022-08-19T07:52:50.317Z,95826.78
2022-08-19T07:55:42.204Z,95834.56
2022-08-19T07:58:09.777Z,95830.84
2022-08-19T08:00:37.792Z,95832.72
2022-08-19T08:03:05.391Z,95826.31
2022-08-19T08:05:50.551Z,95845.84
2022-08-19T08:08:43.859Z,95840.53
2022-08-19T08:11:12.577Z,95849.50
2022-08-19T08:13:45.052Z,95857.72
2022-08-19T08:16:13.979Z,95848.94
2022-08-19T08:18:43.142Z,95858.16
2022-08-19T08:21:10.802Z,95852.63
2022-08-19T08:23:39.813Z,95863.28
2022-08-19T08:26:07.346Z,95844.56
2022-08-19T08:28:34.933Z,95861.69
2022-08-19T08:31:03.917Z,95869.22
2022-08-19T08:33:37.270Z,95872.13
2022-08-19T08:36:06.551Z,95855.41
2022-08-19T08:38:39.649Z,95859.03
2022-08-19T08:41:15.111Z,95870.09
2022-08-19T08:43:44.351Z,95868.38
2022-08-19T08:46:30.651Z,95867.09
2022-08-19T08:49:08.347Z,95861.72
2022-08-19T08:54:15.879Z,95862.63
2022-08-19T08:56:45.356Z,95865.44
2022-08-19T08:59:21.989Z,95858.41
2022-08-19T09:01:50.990Z,95862.00
2022-08-19T09:04:18.724Z,95868.03
2022-08-19T09:06:53.686Z,95871.41
2022-08-19T09:09:31.922Z,95867.78
2022-08-19T09:12:11.831Z,95868.00
2022-08-19T09:14:50.826Z,95869.00
2022-08-19T09:17:32.005Z,95860.41
2022-08-19T09:20:05.771Z,95857.72
2022-08-19T09:22:37.474Z,95861.19
2022-08-19T09:25:06.726Z,95856.75
2022-08-19T09:27:42.919Z,95853.06
2022-08-19T09:30:15.994Z,95859.78
2022-08-19T09:32:46.160Z,95856.31
2022-08-19T09:35:15.460Z,95857.84
2022-08-19T09:37:43.650Z,95846.22
2022-08-19T09:40:13.118Z,95856.41
2022-08-19T09:42:50.257Z,95849.91
2022-08-19T09:45:23.292Z,95853.72
2022-08-19T09:47:54.259Z,95855.72
2022-08-19T09:50:24.010Z,95863.97
2022-08-19T09:52:55.311Z,95859.13
2022-08-19T09:55:31.827Z,95868.31
2022-08-19T09:58:03.932Z,95859.13
2022-08-19T10:00:32.475Z,95861.97
2022-08-19T10:03:01.462Z,95856.09
2022-08-19T10:05:48.882Z,95858.88
2022-08-19T10:08:18.258Z,95849.28
2022-08-19T10:10:47.273Z,95851.50
2022-08-19T10:13:16.063Z,95859.00
2022-08-19T10:15:45.125Z,95852.84
2022-08-19T10:18:18.645Z,95850.06
2022-08-19T10:20:51.756Z,95849.16
2022-08-19T10:23:21.985Z,95847.22
2022-08-19T10:25:50.464Z,95844.28
2022-08-19T10:28:19.249Z,95856.59
2022-08-19T10:30:47.839Z,95850.38
2022-08-19T10:33:38.717Z,95847.53
2022-08-19T10:36:07.185Z,95840.38
2022-08-19T10:38:35.604Z,95835.28
2022-08-19T10:41:11.194Z,95839.50
2022-08-19T10:43:40.536Z,95841.28
2022-08-19T10:46:13.757Z,95839.81
2022-08-19T10:48:46.169Z,95835.41
2022-08-19T10:51:32.231Z,95806.47
2022-08-19T10:54:00.639Z,95831.09
2022-08-19T10:56:46.196Z,95827.31
2022-08-19T10:59:15.019Z,95833.88
2022-08-19T11:01:43.986Z,95828.53
2022-08-19T11:04:14.449Z,95810.13
2022-08-19T11:06:44.274Z,95826.97
2022-08-19T11:09:12.749Z,95824.06
2022-08-19T11:11:41.751Z,95830.25
2022-08-19T11:14:10.682Z,95827.66
2022-08-19T11:16:39.900Z,95833.28
2022-08-19T11:19:09.177Z,95823.38
2022-08-19T11:21:40.844Z,95826.28
2022-08-19T11:24:11.106Z,95817.66
2022-08-19T11:26:39.736Z,95812.91
2022-08-19T11:29:12.436Z,95824.41
2022-08-19T11:31:42.084Z,95826.53
2022-08-19T11:34:12.301Z,95831.97
2022-08-19T11:36:43.626Z,95817.00
2022-08-19T11:39:13.991Z,95814.47
2022-08-19T11:41:42.008Z,95813.78
2022-08-19T11:44:09.700Z,95818.25
2022-08-19T11:46:38.411Z,95826.44
2022-08-19T11:49:13.794Z,95826.41
2022-08-19T11:51:44.037Z,95822.38
2022-08-19T11:54:13.608Z,95823.22
2022-08-19T11:56:41.800Z,95824.03
2022-08-19T11:59:14.071Z,95818.06
2022-08-19T12:01:43.432Z,95812.25
2022-08-19T12:04:11.303Z,95819.88
2022-08-19T12:06:40.958Z,95812.91
2022-08-19T12:09:11.384Z,95816.00
2022-08-19T12:11:39.857Z,95804.97
2022-08-19T12:14:07.878Z,95814.72
2022-08-19T12:16:37.806Z,95812.09
2022-08-19T12:19:08.742Z,95810.44
2022-08-19T12:21:37.882Z,95805.84
2022-08-19T12:24:08.339Z,95805.91
2022-08-19T12:26:52.511Z,95805.22
2022-08-19T12:29:23.685Z,95801.19
2022-08-19T12:31:52.064Z,95794.25
2022-08-19T12:34:20.880Z,95796.22
2022-08-19T12:36:50.039Z,95787.28
2022-08-19T12:39:17.530Z,95795.63
2022-08-19T12:41:54.124Z,95794.97
2022-08-19T12:44:29.542Z,95793.72
2022-08-19T12:46:59.992Z,95784.81
2022-08-19T12:49:53.791Z,95784.69
2022-08-19T12:52:19.851Z,95770.41
2022-08-19T12:54:53.965Z,95781.69
2022-08-19T12:57:24.512Z,95796.78
2022-08-19T13:00:00.081Z,95786.84
2022-08-19T13:02:27.978Z,95778.69
2022-08-19T13:04:55.460Z,95771.44
2022-08-19T13:07:22.924Z,95775.16
2022-08-19T13:09:53.200Z,95782.19
2022-08-19T13:12:21.978Z,95781.63
2022-08-19T13:14:54.059Z,95773.63
2022-08-19T13:17:22.512Z,95771.53
2022-08-19T13:19:51.106Z,95760.31
2022-08-19T13:22:19.282Z,95779.88
2022-08-19T13:24:47.520Z,95778.84
2022-08-19T13:27:15.291Z,95779.44
2022-08-19T13:30:01.079Z,95777.22
2022-08-19T13:32:48.130Z,95775.69
2022-08-19T13:35:19.532Z,95775.16
2022-08-19T13:37:47.266Z,95749.47
2022-08-19T13:40:19.839Z,95769.28
2022-08-19T13:42:50.689Z,95759.75
2022-08-19T13:45:20.872Z,95768.97
2022-08-19T13:47:53.596Z,95767.63
2022-08-19T13:50:25.764Z,95765.16
2022-08-19T13:52:53.890Z,95753.94
2022-08-19T13:55:24.555Z,95768.59
2022-08-19T13:57:53.851Z,95752.94
2022-08-19T14:00:22.878Z,95762.72
2022-08-19T14:02:54.778Z,95757.16
2022-08-19T14:05:22.904Z,95763.13
2022-08-19T14:07:50.403Z,95761.13
2022-08-19T14:10:19.685Z,95768.09
2022-08-19T14:12:48.154Z,95771.88
2022-08-19T14:15:16.214Z,95766.78
2022-08-19T14:17:45.638Z,95760.00
2022-08-19T14:20:17.616Z,95762.03
2022-08-19T14:22:47.740Z,95770.97
2022-08-19T14:25:18.911Z,95775.28
2022-08-19T14:27:46.831Z,95778.50
2022-08-19T14:30:16.731Z,95774.09
2022-08-19T14:32:45.380Z,95769.66
2022-08-19T14:35:16.357Z,95767.09
2022-08-19T14:37:46.178Z,95775.50
2022-08-19T14:40:15.133Z,95774.47
2022-08-19T14:42:43.062Z,95772.50
2022-08-19T14:45:11.873Z,95774.56
2022-08-19T14:47:40.891Z,95785.47
2022-08-19T14:50:10.443Z,95789.59
2022-08-19T14:52:40.959Z,95778.34
2022-08-19T14:55:09.280Z,95789.50
2022-08-19T14:57:36.973Z,95788.53
2022-08-19T15:00:05.662Z,95800.75
2022-08-19T15:02:34.640Z,95794.34
2022-08-19T15:05:03.116Z,95794.09
2022-08-19T15:07:30.896Z,95805.84
2022-08-19T15:10:00.196Z,95792.75
2022-08-19T15:12:27.769Z,95801.69
2022-08-19T15:14:56.340Z,95806.66
2022-08-19T15:17:43.294Z,95800.19
2022-08-19T15:20:14.452Z,95798.13
2022-08-19T15:22:42.587Z,95797.69
2022-08-19T15:25:15.706Z,95797.94
2022-08-19T15:27:44.279Z,95796.91
2022-08-19T15:30:13.780Z,95809.00
2022-08-19T15:32:41.478Z,95807.00
2022-08-19T15:35:09.571Z,95802.19
2022-08-19T15:37:37.691Z,95801.38
2022-08-19T15:40:07.349Z,95813.63
2022-08-19T15:42:37.299Z,95807.66
2022-08-19T15:45:05.342Z,95813.66
2022-08-19T15:47:34.542Z,95811.00
2022-08-19T15:50:10.512Z,95822.97
2022-08-19T15:52:46.789Z,95814.63
2022-08-19T15:55:19.966Z,95816.53
2022-08-19T15:58:29.029Z,95824.38
2022-08-19T16:01:15.346Z,95823.38
2022-08-19T16:04:01.392Z,95815.25
2022-08-19T16:06:31.310Z,95812.06
2022-08-19T16:09:01.765Z,95810.34
2022-08-19T16:11:32.136Z,95818.91
2022-08-19T16:14:02.676Z,95818.31
2022-08-19T16:16:34.107Z,95816.84
2022-08-19T16:19:03.837Z,95830.47
2022-08-19T16:21:33.087Z,95828.94
2022-08-19T16:24:02.737Z,95828.50
2022-08-19T16:26:31.062Z,95839.63
2022-08-19T16:29:01.367Z,95833.06
2022-08-19T16:31:29.458Z,95829.81
2022-08-19T16:33:57.339Z,95834.75
2022-08-19T16:36:25.019Z,95845.38
2022-08-19T16:38:53.315Z,95829.91
2022-08-19T16:41:21.426Z,95833.38
2022-08-19T16:43:52.477Z,95834.41
2022-08-19T16:46:22.633Z,95850.66
2022-08-19T16:48:50.879Z,95855.97
2022-08-19T16:51:18.645Z,95847.88
2022-08-19T16:53:46.206Z,95850.66
2022-08-19T16:56:13.988Z,95855.91
2022-08-19T16:58:42.568Z,95853.69
2022-08-19T17:01:11.128Z,95851.22
2022-08-19T17:03:40.296Z,95847.41
2022-08-19T17:06:15.854Z,95844.81
2022-08-19T17:08:48.692Z,95855.13
2022-08-19T17:11:18.685Z,95848.50
2022-08-19T17:13:47.664Z,95850.84
2022-08-19T17:16:16.082Z,95841.84
2022-08-19T17:18:44.969Z,95842.47
2022-08-19T17:21:13.233Z,95844.59
2022-08-19T17:23:43.471Z,95829.19
2022-08-19T17:26:11.535Z,95833.88
2022-08-19T17:28:45.324Z,95831.53
2022-08-19T17:31:13.156Z,95829.19
2022-08-19T17:33:41.099Z,95825.91
2022-08-19T17:36:10.428Z,95819.84
2022-08-19T17:38:39.224Z,95832.00
2022-08-19T17:41:07.455Z,95836.13
2022-08-19T17:43:41.298Z,95843.72
2022-08-19T17:46:18.279Z,95836.06
2022-08-19T17:48:51.927Z,95837.03
2022-08-19T17:51:24.503Z,95813.84
2022-08-19T17:53:54.532Z,95843.28
2022-08-19T17:56:23.419Z,95839.53
2022-08-19T17:58:54.389Z,95842.63
2022-08-19T18:01:29.503Z,95825.69
2022-08-19T18:04:16.882Z,95840.47
2022-08-19T18:06:50.250Z,95837.97
2022-08-19T18:09:20.969Z,95823.09
2022-08-19T18:11:53.034Z,95839.09
2022-08-19T18:14:20.972Z,95847.97
2022-08-19T18:16:48.483Z,95842.56
2022-08-19T18:19:16.004Z,95843.50
2022-08-19T18:21:44.882Z,95843.69
2022-08-19T18:24:12.551Z,95853.75
2022-08-19T18:26:40.285Z,95854.19
2022-08-19T18:29:09.218Z,95832.56
2022-08-19T18:31:38.581Z,95863.78
2022-08-19T18:34:09.926Z,95866.31
2022-08-19T18:36:53.535Z,95862.28
2022-08-19T18:39:44.241Z,95824.75
2022-08-19T18:42:32.735Z,95839.44
2022-08-19T18:45:18.147Z,95867.78
2022-08-19T18:48:03.420Z,95866.84
2022-08-19T18:50:31.087Z,95860.31
2022-08-19T18:52:58.616Z,95855.47
2022-08-19T18:55:29.168Z,95847.88
2022-08-19T18:57:56.929Z,95853.31
2022-08-19T19:00:25.211Z,95857.88
2022-08-19T19:02:54.474Z,95864.88
2022-08-19T19:05:22.873Z,95868.50
2022-08-19T19:07:50.475Z,95859.31
2022-08-19T19:10:18.094Z,95865.69
2022-08-19T19:12:47.668Z,95872.09
2022-08-19T19:15:15.174Z,95869.28
2022-08-19T19:17:42.705Z,95876.63
2022-08-19T19:20:10.283Z,95883.00
2022-08-19T19:22:37.814Z,95896.09
2022-08-19T19:25:06.545Z,95878.34
2022-08-19T19:27:34.030Z,95890.16
2022-08-19T19:30:02.898Z,95892.34
2022-08-19T19:32:38.967Z,95854.44
2022-08-19T19:35:09.740Z,95889.69
2022-08-19T19:37:37.355Z,95887.66
2022-08-19T19:40:05.482Z,95893.44
2022-08-19T19:42:33.031Z,95889.97
2022-08-19T19:45:01.962Z,95893.69
2022-08-19T19:47:31.122Z,95909.56
2022-08-19T19:50:15.588Z,95907.94
2022-08-19T19:52:46.554Z,95916.13
2022-08-19T19:55:17.942Z,95908.25
2022-08-19T19:57:46.201Z,95935.19
2022-08-19T20:00:16.304Z,95937.00
2022-08-19T20:02:49.274Z,95937.09
2022-08-19T20:05:19.144Z,95934.91
2022-08-19T20:08:04.401Z,95925.66
2022-08-19T20:10:32.444Z,95937.31
2022-08-19T20:13:02.221Z,95940.22
2022-08-19T20:15:30.881Z,95928.69
2022-08-19T20:18:00.825Z,95928.91
2022-08-19T20:20:28.363Z,95942.50
2022-08-19T20:22:55.936Z,95938.63
2022-08-19T20:25:23.454Z,95938.38
2022-08-19T20:27:51.159Z,95941.78
2022-08-19T20:30:21.639Z,95944.53
2022-08-19T20:32:51.353Z,95942.47
2022-08-19T20:35:22.120Z,95944.75
2022-08-19T20:37:52.853Z,95944.34
2022-08-19T20:40:23.543Z,95952.09
2022-08-19T20:42:51.398Z,95946.72
2022-08-19T20:45:32.895Z,95947.31
2022-08-19T20:48:02.215Z,95945.56
2022-08-19T20:50:31.425Z,95945.19
2022-08-19T20:52:59.359Z,95945.19
2022-08-19T20:55:28.245Z,95937.97
2022-08-19T20:57:56.445Z,95950.09
2022-08-19T21:00:24.116Z,95946.56
2022-08-19T21:02:51.564Z,95942.66
2022-08-19T21:05:19.032Z,95942.66
2022-08-19T21:07:47.843Z,95952.72
2022-08-19T21:10:15.329Z,95950.41
2022-08-19T21:12:44.273Z,95950.50
2022-08-19T21:15:12.394Z,95953.91
2022-08-19T21:17:39.943Z,95950.97
2022-08-19T21:20:09.539Z,95944.16
2022-08-19T21:22:37.091Z,95951.25
2022-08-19T21:25:07.095Z,95949.91
2022-08-19T21:27:34.659Z,95947.75
2022-08-19T21:30:02.142Z,95943.34
2022-08-19T21:32:29.623Z,95945.97
2022-08-19T21:34:57.303Z,95949.13
2022-08-19T21:37:26.137Z,95945.59
2022-08-19T21:39:54.174Z,95955.19
2022-08-19T21:42:23.414Z,95947.44
2022-08-19T21:44:50.988Z,95959.38
2022-08-19T21:47:18.505Z,95949.69
2022-08-19T21:49:46.016Z,95949.81
2022-08-19T21:52:13.773Z,95957.34
2022-08-19T21:54:41.649Z,95952.34
2022-08-19T21:57:10.507Z,95946.56
2022-08-19T21:59:43.519Z,95944.72
2022-08-19T22:02:19.972Z,95919.03
2022-08-19T22:04:49.061Z,95954.81
2022-08-19T22:07:16.691Z,95945.59
2022-08-19T22:09:45.410Z,95949.53
2022-08-19T22:12:23.855Z,95954.59
2022-08-19T22:14:53.760Z,95947.25
2022-08-19T22:17:22.308Z,95951.47
2022-08-19T22:19:50.822Z,95948.34
2022-08-19T22:22:23.998Z,95956.56
2022-08-19T22:24:51.772Z,95947.34
2022-08-19T22:27:20.179Z,95947.34
2022-08-19T22:29:48.051Z,95950.78
2022-08-19T22:32:27.891Z,95949.22
2022-08-19T22:34:59.226Z,95944.53
2022-08-19T22:37:27.608Z,95942.78
2022-08-19T22:39:55.521Z,95952.16
2022-08-19T22:42:24.647Z,95958.22
2022-08-19T22:44:53.144Z,95947.56
2022-08-19T22:47:23.376Z,95947.25
2022-08-19T22:49:54.612Z,95939.25
2022-08-19T22:52:21.960Z,95951.38
2022-08-19T22:54:51.339Z,95945.31
2022-08-19T22:57:20.344Z,95948.53
2022-08-19T22:59:49.451Z,95952.25
2022-08-19T23:02:19.183Z,95945.41
2022-08-19T23:04:48.779Z,95943.94
2022-08-19T23:07:16.528Z,95956.44
2022-08-19T23:09:44.518Z,95951.56
2022-08-19T23:12:13.763Z,95956.84
2022-08-19T23:14:41.477Z,95963.88
2022-08-19T23:17:09.402Z,95951.84
2022-08-19T23:19:38.342Z,95953.72
2022-08-19T23:22:08.255Z,95946.41
2022-08-19T23:24:35.721Z,95951.19
2022-08-19T23:27:21.144Z,95956.63
2022-08-19T23:30:08.179Z,95962.41
2022-08-19T23:32:36.395Z,95946.66
2022-08-19T23:35:04.530Z,95955.06
2022-08-19T23:37:33.373Z,95954.00
2022-08-19T23:40:01.236Z,95946.00
2022-08-19T23:42:28.844Z,95938.66
2022-08-19T23:45:01.225Z,95938.97
2022-08-19T23:47:29.283Z,95935.03
2022-08-19T23:49:57.923Z,95948.22
2022-08-19T23:52:26.143Z,95947.75
2022-08-19T23:54:55.179Z,95949.91
2022-08-19T23:57:22.933Z,95942.28
2022-08-19T23:59:50.418Z,95943.44
